sensor_id;sensor_type;location;lat;lon;timestamp;temperature;humidity
18611;DHT22;9435;52.122;5.502;2022-10-16T00:01:24;12.30;99.90
18611;DHT22;9435;52.122;5.502;2022-10-16T00:03:51;12.30;99.90
18611;DHT22;9435;52.122;5.502;2022-10-16T00:06:20;12.30;99.90
18611;DHT22;9435;52.122;5.502;2022-10-16T00:08:48;12.30;99.90
18611;DHT22;9435;52.122;5.502;2022-10-16T00:11:17;12.30;99.90
18611;DHT22;9435;52.122;5.502;2022-10-16T00:13:46;12.30;99.90
18611;DHT22;9435;52.122;5.502;2022-10-16T00:16:15;12.30;99.90
18611;DHT22;9435;52.122;5.502;2022-10-16T00:18:43;12.30;99.90
18611;DHT22;9435;52.122;5.502;2022-10-16T00:21:12;12.30;99.90
18611;DHT22;9435;52.122;5.502;2022-10-16T00:23:40;12.30;99.90
18611;DHT22;9435;52.122;5.502;2022-10-16T00:26:09;12.30;99.90
18611;DHT22;9435;52.122;5.502;2022-10-16T00:28:36;12.30;99.90
18611;DHT22;9435;52.122;5.502;2022-10-16T00:31:04;12.30;99.90
18611;DHT22;9435;52.122;5.502;2022-10-16T00:33:31;12.30;99.90
18611;DHT22;9435;52.122;5.502;2022-10-16T00:36:00;12.30;99.90
18611;DHT22;9435;52.122;5.502;2022-10-16T00:38:29;12.30;99.90
18611;DHT22;9435;52.122;5.502;2022-10-16T00:41:01;12.30;99.90
18611;DHT22;9435;52.122;5.502;2022-10-16T00:43:39;12.30;99.90
18611;DHT22;9435;52.122;5.502;2022-10-16T00:46:15;12.30;99.90
18611;DHT22;9435;52.122;5.502;2022-10-16T00:48:47;12.30;99.90
18611;DHT22;9435;52.122;5.502;2022-10-16T00:51:24;12.30;99.90
18611;DHT22;9435;52.122;5.502;2022-10-16T00:53:58;12.30;99.90
18611;DHT22;9435;52.122;5.502;2022-10-16T00:56:26;12.40;99.90
18611;DHT22;9435;52.122;5.502;2022-10-16T00:58:53;12.40;99.90
18611;DHT22;9435;52.122;5.502;2022-10-16T01:01:20;12.40;99.90
18611;DHT22;9435;52.122;5.502;2022-10-16T01:03:47;12.40;99.90
18611;DHT22;9435;52.122;5.502;2022-10-16T01:06:23;12.40;99.90
18611;DHT22;9435;52.122;5.502;2022-10-16T01:09:06;12.50;99.90
18611;DHT22;9435;52.122;5.502;2022-10-16T01:11:41;12.40;99.90
18611;DHT22;9435;52.122;5.502;2022-10-16T01:14:28;12.50;99.90
18611;DHT22;9435;52.122;5.502;2022-10-16T01:17:01;12.50;99.90
18611;DHT22;9435;52.122;5.502;2022-10-16T01:22:39;12.50;99.90
18611;DHT22;9435;52.122;5.502;2022-10-16T01:25:14;12.50;99.90
18611;DHT22;9435;52.122;5.502;2022-10-16T01:27:46;12.60;99.90
18611;DHT22;9435;52.122;5.502;2022-10-16T01:30:17;12.60;99.90
18611;DHT22;9435;52.122;5.502;2022-10-16T01:32:48;12.50;99.90
18611;DHT22;9435;52.122;5.502;2022-10-16T01:35:18;12.60;99.90
18611;DHT22;9435;52.122;5.502;2022-10-16T01:37:50;12.60;99.90
18611;DHT22;9435;52.122;5.502;2022-10-16T01:40:20;12.60;99.90
18611;DHT22;9435;52.122;5.502;2022-10-16T01:42:52;12.60;99.90
18611;DHT22;9435;52.122;5.502;2022-10-16T01:45:20;12.60;99.90
18611;DHT22;9435;52.122;5.502;2022-10-16T01:47:49;12.70;99.90
18611;DHT22;9435;52.122;5.502;2022-10-16T01:50:19;12.70;99.90
18611;DHT22;9435;52.122;5.502;2022-10-16T01:52:49;12.70;99.90
18611;DHT22;9435;52.122;5.502;2022-10-16T01:55:20;12.70;99.90
18611;DHT22;9435;52.122;5.502;2022-10-16T01:57:52;12.70;99.90
18611;DHT22;9435;52.122;5.502;2022-10-16T02:00:21;12.70;99.90
18611;DHT22;9435;52.122;5.502;2022-10-16T02:02:51;12.70;99.90
18611;DHT22;9435;52.122;5.502;2022-10-16T02:05:22;12.70;99.90
18611;DHT22;9435;52.122;5.502;2022-10-16T02:07:51;12.70;99.90
18611;DHT22;9435;52.122;5.502;2022-10-16T02:10:18;12.70;99.90
18611;DHT22;9435;52.122;5.502;2022-10-16T02:12:50;12.70;99.90
18611;DHT22;9435;52.122;5.502;2022-10-16T02:15:18;12.70;99.90
18611;DHT22;9435;52.122;5.502;2022-10-16T02:17:45;12.80;99.90
18611;DHT22;9435;52.122;5.502;2022-10-16T02:20:12;12.80;99.90
18611;DHT22;9435;52.122;5.502;2022-10-16T02:22:43;12.80;99.90
18611;DHT22;9435;52.122;5.502;2022-10-16T02:25:17;12.80;99.90
18611;DHT22;9435;52.122;5.502;2022-10-16T02:27:47;12.80;99.90
18611;DHT22;9435;52.122;5.502;2022-10-16T02:30:24;12.80;99.90
18611;DHT22;9435;52.122;5.502;2022-10-16T02:32:52;12.80;99.90
18611;DHT22;9435;52.122;5.502;2022-10-16T02:35:21;12.80;99.90
18611;DHT22;9435;52.122;5.502;2022-10-16T02:37:50;12.80;99.90
18611;DHT22;9435;52.122;5.502;2022-10-16T02:40:18;12.90;99.90
18611;DHT22;9435;52.122;5.502;2022-10-16T02:42:50;12.80;99.90
18611;DHT22;9435;52.122;5.502;2022-10-16T02:45:19;12.80;99.90
18611;DHT22;9435;52.122;5.502;2022-10-16T02:47:46;12.80;99.90
18611;DHT22;9435;52.122;5.502;2022-10-16T02:50:13;12.90;99.90
18611;DHT22;9435;52.122;5.502;2022-10-16T02:52:41;12.90;99.90
18611;DHT22;9435;52.122;5.502;2022-10-16T02:55:09;12.90;99.90
18611;DHT22;9435;52.122;5.502;2022-10-16T02:57:35;12.80;99.90
18611;DHT22;9435;52.122;5.502;2022-10-16T03:00:05;12.80;99.90
18611;DHT22;9435;52.122;5.502;2022-10-16T03:02:34;12.80;99.90
18611;DHT22;9435;52.122;5.502;2022-10-16T03:05:01;12.80;99.90
18611;DHT22;9435;52.122;5.502;2022-10-16T03:07:28;12.80;99.90
18611;DHT22;9435;52.122;5.502;2022-10-16T03:09:55;12.80;99.90
18611;DHT22;9435;52.122;5.502;2022-10-16T03:12:22;12.80;99.90
18611;DHT22;9435;52.122;5.502;2022-10-16T03:14:49;12.80;99.90
18611;DHT22;9435;52.122;5.502;2022-10-16T03:17:16;12.80;99.90
18611;DHT22;9435;52.122;5.502;2022-10-16T03:19:44;12.80;99.90
18611;DHT22;9435;52.122;5.502;2022-10-16T03:22:11;12.80;99.90
18611;DHT22;9435;52.122;5.502;2022-10-16T03:24:38;12.80;99.90
18611;DHT22;9435;52.122;5.502;2022-10-16T03:27:05;12.70;99.90
18611;DHT22;9435;52.122;5.502;2022-10-16T03:29:32;12.80;99.90
18611;DHT22;9435;52.122;5.502;2022-10-16T03:32:00;12.80;99.90
18611;DHT22;9435;52.122;5.502;2022-10-16T03:34:27;12.70;99.90
18611;DHT22;9435;52.122;5.502;2022-10-16T03:36:56;12.70;99.90
18611;DHT22;9435;52.122;5.502;2022-10-16T03:39:23;12.70;99.90
18611;DHT22;9435;52.122;5.502;2022-10-16T03:41:50;12.70;99.90
18611;DHT22;9435;52.122;5.502;2022-10-16T03:44:17;12.70;99.90
18611;DHT22;9435;52.122;5.502;2022-10-16T03:46:44;12.70;99.90
18611;DHT22;9435;52.122;5.502;2022-10-16T03:49:11;12.70;99.90
18611;DHT22;9435;52.122;5.502;2022-10-16T03:51:38;12.70;99.90
18611;DHT22;9435;52.122;5.502;2022-10-16T03:54:06;12.70;99.90
18611;DHT22;9435;52.122;5.502;2022-10-16T03:56:33;12.70;99.90
18611;DHT22;9435;52.122;5.502;2022-10-16T03:59:00;12.70;99.90
18611;DHT22;9435;52.122;5.502;2022-10-16T04:01:27;12.60;99.90
18611;DHT22;9435;52.122;5.502;2022-10-16T04:03:54;12.60;99.90
18611;DHT22;9435;52.122;5.502;2022-10-16T04:06:20;12.60;99.90
18611;DHT22;9435;52.122;5.502;2022-10-16T04:08:47;12.60;99.90
18611;DHT22;9435;52.122;5.502;2022-10-16T04:11:16;12.60;99.90
18611;DHT22;9435;52.122;5.502;2022-10-16T04:13:43;12.60;99.90
18611;DHT22;9435;52.122;5.502;2022-10-16T04:16:10;12.50;99.90
18611;DHT22;9435;52.122;5.502;2022-10-16T04:18:37;12.50;99.90
18611;DHT22;9435;52.122;5.502;2022-10-16T04:21:04;12.50;99.90
18611;DHT22;9435;52.122;5.502;2022-10-16T04:23:31;12.50;99.90
18611;DHT22;9435;52.122;5.502;2022-10-16T04:25:58;12.50;99.90
18611;DHT22;9435;52.122;5.502;2022-10-16T04:28:27;12.50;99.90
18611;DHT22;9435;52.122;5.502;2022-10-16T04:30:54;12.50;99.90
18611;DHT22;9435;52.122;5.502;2022-10-16T04:33:21;12.50;99.90
18611;DHT22;9435;52.122;5.502;2022-10-16T04:35:48;12.40;99.90
18611;DHT22;9435;52.122;5.502;2022-10-16T04:38:22;12.40;99.90
18611;DHT22;9435;52.122;5.502;2022-10-16T04:40:49;12.40;99.90
18611;DHT22;9435;52.122;5.502;2022-10-16T04:43:16;12.40;99.90
18611;DHT22;9435;52.122;5.502;2022-10-16T04:45:44;12.40;99.90
18611;DHT22;9435;52.122;5.502;2022-10-16T04:48:11;12.40;99.90
18611;DHT22;9435;52.122;5.502;2022-10-16T04:50:38;12.40;99.90
18611;DHT22;9435;52.122;5.502;2022-10-16T04:53:05;12.40;99.90
18611;DHT22;9435;52.122;5.502;2022-10-16T04:55:33;12.40;99.90
18611;DHT22;9435;52.122;5.502;2022-10-16T04:58:00;12.40;99.90
18611;DHT22;9435;52.122;5.502;2022-10-16T05:00:27;12.40;99.90
18611;DHT22;9435;52.122;5.502;2022-10-16T05:02:55;12.40;99.90
18611;DHT22;9435;52.122;5.502;2022-10-16T05:05:22;12.30;99.90
18611;DHT22;9435;52.122;5.502;2022-10-16T05:07:49;12.30;99.90
18611;DHT22;9435;52.122;5.502;2022-10-16T05:10:16;12.30;99.90
18611;DHT22;9435;52.122;5.502;2022-10-16T05:12:43;12.40;99.90
18611;DHT22;9435;52.122;5.502;2022-10-16T05:15:10;12.30;99.90
18611;DHT22;9435;52.122;5.502;2022-10-16T05:17:37;12.30;99.90
18611;DHT22;9435;52.122;5.502;2022-10-16T05:20:07;12.30;99.90
18611;DHT22;9435;52.122;5.502;2022-10-16T05:22:34;12.30;99.90
18611;DHT22;9435;52.122;5.502;2022-10-16T05:25:01;12.30;99.90
18611;DHT22;9435;52.122;5.502;2022-10-16T05:27:27;12.20;99.90
18611;DHT22;9435;52.122;5.502;2022-10-16T05:29:54;12.20;99.90
18611;DHT22;9435;52.122;5.502;2022-10-16T05:32:21;12.20;99.90
18611;DHT22;9435;52.122;5.502;2022-10-16T05:34:48;12.20;99.90
18611;DHT22;9435;52.122;5.502;2022-10-16T05:37:18;12.20;99.90
18611;DHT22;9435;52.122;5.502;2022-10-16T05:39:45;12.20;99.90
18611;DHT22;9435;52.122;5.502;2022-10-16T05:42:12;12.20;99.90
18611;DHT22;9435;52.122;5.502;2022-10-16T05:44:40;12.20;99.90
18611;DHT22;9435;52.122;5.502;2022-10-16T05:47:07;12.20;99.90
18611;DHT22;9435;52.122;5.502;2022-10-16T05:49:34;12.10;99.90
18611;DHT22;9435;52.122;5.502;2022-10-16T05:52:00;12.20;99.90
18611;DHT22;9435;52.122;5.502;2022-10-16T05:54:29;12.10;99.90
18611;DHT22;9435;52.122;5.502;2022-10-16T05:56:56;12.20;99.90
18611;DHT22;9435;52.122;5.502;2022-10-16T05:59:23;12.20;99.90
18611;DHT22;9435;52.122;5.502;2022-10-16T06:01:50;12.20;99.90
18611;DHT22;9435;52.122;5.502;2022-10-16T06:04:18;12.20;99.90
18611;DHT22;9435;52.122;5.502;2022-10-16T06:06:44;12.20;99.90
18611;DHT22;9435;52.122;5.502;2022-10-16T06:09:11;12.20;99.90
18611;DHT22;9435;52.122;5.502;2022-10-16T06:11:40;12.20;99.90
18611;DHT22;9435;52.122;5.502;2022-10-16T06:14:08;12.30;99.90
18611;DHT22;9435;52.122;5.502;2022-10-16T06:16:36;12.30;99.90
18611;DHT22;9435;52.122;5.502;2022-10-16T06:19:04;12.30;99.90
18611;DHT22;9435;52.122;5.502;2022-10-16T06:21:34;12.30;99.90
18611;DHT22;9435;52.122;5.502;2022-10-16T06:24:01;12.30;99.90
18611;DHT22;9435;52.122;5.502;2022-10-16T06:26:29;12.30;99.90
18611;DHT22;9435;52.122;5.502;2022-10-16T06:28:59;12.30;99.90
18611;DHT22;9435;52.122;5.502;2022-10-16T06:31:27;12.40;99.90
18611;DHT22;9435;52.122;5.502;2022-10-16T06:33:57;12.40;99.90
18611;DHT22;9435;52.122;5.502;2022-10-16T06:36:24;12.40;99.90
18611;DHT22;9435;52.122;5.502;2022-10-16T06:38:51;12.40;99.90
18611;DHT22;9435;52.122;5.502;2022-10-16T06:41:20;12.40;99.90
18611;DHT22;9435;52.122;5.502;2022-10-16T06:43:47;12.40;99.90
18611;DHT22;9435;52.122;5.502;2022-10-16T06:46:17;12.50;99.90
18611;DHT22;9435;52.122;5.502;2022-10-16T06:48:45;12.50;99.90
18611;DHT22;9435;52.122;5.502;2022-10-16T06:51:14;12.50;99.90
18611;DHT22;9435;52.122;5.502;2022-10-16T06:53:43;12.50;99.90
18611;DHT22;9435;52.122;5.502;2022-10-16T06:56:12;12.50;99.90
18611;DHT22;9435;52.122;5.502;2022-10-16T06:58:39;12.60;99.90
18611;DHT22;9435;52.122;5.502;2022-10-16T07:01:07;12.60;99.90
18611;DHT22;9435;52.122;5.502;2022-10-16T07:03:38;12.60;99.90
18611;DHT22;9435;52.122;5.502;2022-10-16T07:06:06;12.60;99.90
18611;DHT22;9435;52.122;5.502;2022-10-16T07:08:35;12.70;99.90
18611;DHT22;9435;52.122;5.502;2022-10-16T07:11:04;12.70;99.90
18611;DHT22;9435;52.122;5.502;2022-10-16T07:13:33;12.60;99.90
18611;DHT22;9435;52.122;5.502;2022-10-16T07:16:04;12.70;99.90
18611;DHT22;9435;52.122;5.502;2022-10-16T07:18:31;12.70;99.90
18611;DHT22;9435;52.122;5.502;2022-10-16T07:21:05;12.80;99.90
18611;DHT22;9435;52.122;5.502;2022-10-16T07:23:32;12.80;99.90
18611;DHT22;9435;52.122;5.502;2022-10-16T07:25:59;12.80;99.90
18611;DHT22;9435;52.122;5.502;2022-10-16T07:28:27;12.90;99.90
18611;DHT22;9435;52.122;5.502;2022-10-16T07:30:54;12.90;99.90
18611;DHT22;9435;52.122;5.502;2022-10-16T07:33:22;12.90;99.90
18611;DHT22;9435;52.122;5.502;2022-10-16T07:35:50;13.00;99.90
18611;DHT22;9435;52.122;5.502;2022-10-16T07:38:19;13.00;99.90
18611;DHT22;9435;52.122;5.502;2022-10-16T07:40:47;13.00;99.90
18611;DHT22;9435;52.122;5.502;2022-10-16T07:43:14;13.00;99.90
18611;DHT22;9435;52.122;5.502;2022-10-16T07:45:48;13.10;99.90
18611;DHT22;9435;52.122;5.502;2022-10-16T07:48:16;13.10;99.90
18611;DHT22;9435;52.122;5.502;2022-10-16T07:50:43;13.20;99.90
18611;DHT22;9435;52.122;5.502;2022-10-16T07:53:11;13.20;99.90
18611;DHT22;9435;52.122;5.502;2022-10-16T07:55:40;13.20;99.90
18611;DHT22;9435;52.122;5.502;2022-10-16T07:58:07;13.30;99.90
18611;DHT22;9435;52.122;5.502;2022-10-16T08:00:36;13.20;99.90
18611;DHT22;9435;52.122;5.502;2022-10-16T08:03:03;13.20;99.90
18611;DHT22;9435;52.122;5.502;2022-10-16T08:05:32;13.20;99.90
18611;DHT22;9435;52.122;5.502;2022-10-16T08:08:00;13.30;99.90
18611;DHT22;9435;52.122;5.502;2022-10-16T08:10:28;13.50;99.90
18611;DHT22;9435;52.122;5.502;2022-10-16T08:12:58;13.70;99.90
18611;DHT22;9435;52.122;5.502;2022-10-16T08:15:25;13.80;99.90
18611;DHT22;9435;52.122;5.502;2022-10-16T08:17:57;13.80;99.90
18611;DHT22;9435;52.122;5.502;2022-10-16T08:20:24;13.80;99.90
18611;DHT22;9435;52.122;5.502;2022-10-16T08:22:51;13.90;99.90
18611;DHT22;9435;52.122;5.502;2022-10-16T08:25:19;14.10;99.90
18611;DHT22;9435;52.122;5.502;2022-10-16T08:27:46;14.10;99.90
18611;DHT22;9435;52.122;5.502;2022-10-16T08:30:15;14.00;99.90
18611;DHT22;9435;52.122;5.502;2022-10-16T08:32:42;14.20;99.90
18611;DHT22;9435;52.122;5.502;2022-10-16T08:35:12;14.40;99.90
18611;DHT22;9435;52.122;5.502;2022-10-16T08:37:39;14.50;99.90
18611;DHT22;9435;52.122;5.502;2022-10-16T08:40:16;14.40;99.90
18611;DHT22;9435;52.122;5.502;2022-10-16T08:43:11;14.50;99.90
18611;DHT22;9435;52.122;5.502;2022-10-16T08:45:54;14.60;99.90
18611;DHT22;9435;52.122;5.502;2022-10-16T08:48:30;14.60;99.90
18611;DHT22;9435;52.122;5.502;2022-10-16T08:51:01;14.80;99.90
18611;DHT22;9435;52.122;5.502;2022-10-16T08:53:33;14.80;99.90
18611;DHT22;9435;52.122;5.502;2022-10-16T08:56:05;14.90;99.90
18611;DHT22;9435;52.122;5.502;2022-10-16T08:58:32;14.90;99.90
18611;DHT22;9435;52.122;5.502;2022-10-16T09:01:03;15.00;99.90
18611;DHT22;9435;52.122;5.502;2022-10-16T09:03:48;15.00;99.90
18611;DHT22;9435;52.122;5.502;2022-10-16T09:06:29;15.00;99.90
18611;DHT22;9435;52.122;5.502;2022-10-16T09:12:11;15.00;99.90
18611;DHT22;9435;52.122;5.502;2022-10-16T09:15:05;15.00;99.90
18611;DHT22;9435;52.122;5.502;2022-10-16T09:17:41;15.10;99.90
18611;DHT22;9435;52.122;5.502;2022-10-16T09:20:20;15.10;99.90
18611;DHT22;9435;52.122;5.502;2022-10-16T09:22:47;15.20;99.90
18611;DHT22;9435;52.122;5.502;2022-10-16T09:25:16;15.20;99.90
18611;DHT22;9435;52.122;5.502;2022-10-16T09:27:45;15.30;99.90
18611;DHT22;9435;52.122;5.502;2022-10-16T09:30:15;15.30;99.90
18611;DHT22;9435;52.122;5.502;2022-10-16T09:32:47;15.40;99.90
18611;DHT22;9435;52.122;5.502;2022-10-16T09:35:17;15.40;99.90
18611;DHT22;9435;52.122;5.502;2022-10-16T09:37:48;15.50;99.90
18611;DHT22;9435;52.122;5.502;2022-10-16T09:40:25;15.50;99.90
18611;DHT22;9435;52.122;5.502;2022-10-16T09:43:02;15.40;99.90
18611;DHT22;9435;52.122;5.502;2022-10-16T09:45:30;15.50;99.90
18611;DHT22;9435;52.122;5.502;2022-10-16T09:48:01;15.70;99.90
18611;DHT22;9435;52.122;5.502;2022-10-16T09:50:36;15.70;99.90
18611;DHT22;9435;52.122;5.502;2022-10-16T09:53:06;15.70;99.90
18611;DHT22;9435;52.122;5.502;2022-10-16T09:55:33;15.80;99.90
18611;DHT22;9435;52.122;5.502;2022-10-16T09:58:00;15.70;99.90
18611;DHT22;9435;52.122;5.502;2022-10-16T10:00:27;15.80;99.90
18611;DHT22;9435;52.122;5.502;2022-10-16T10:02:55;15.80;99.90
18611;DHT22;9435;52.122;5.502;2022-10-16T10:05:26;15.70;99.90
18611;DHT22;9435;52.122;5.502;2022-10-16T10:07:58;15.80;99.90
18611;DHT22;9435;52.122;5.502;2022-10-16T10:10:26;15.90;99.90
18611;DHT22;9435;52.122;5.502;2022-10-16T10:12:54;15.80;99.90
18611;DHT22;9435;52.122;5.502;2022-10-16T10:15:22;15.80;99.90
18611;DHT22;9435;52.122;5.502;2022-10-16T10:17:51;15.70;99.90
18611;DHT22;9435;52.122;5.502;2022-10-16T10:20:36;15.80;99.90
18611;DHT22;9435;52.122;5.502;2022-10-16T10:23:20;15.80;99.90
18611;DHT22;9435;52.122;5.502;2022-10-16T10:25:55;15.80;99.90
18611;DHT22;9435;52.122;5.502;2022-10-16T10:28:49;15.80;99.90
18611;DHT22;9435;52.122;5.502;2022-10-16T10:31:20;15.90;99.90
18611;DHT22;9435;52.122;5.502;2022-10-16T10:33:52;15.90;99.90
18611;DHT22;9435;52.122;5.502;2022-10-16T10:36:30;15.90;99.90
18611;DHT22;9435;52.122;5.502;2022-10-16T10:39:00;15.90;99.90
18611;DHT22;9435;52.122;5.502;2022-10-16T10:41:53;16.00;99.90
18611;DHT22;9435;52.122;5.502;2022-10-16T10:44:41;15.90;99.90
18611;DHT22;9435;52.122;5.502;2022-10-16T10:47:20;15.80;99.90
18611;DHT22;9435;52.122;5.502;2022-10-16T10:49:54;15.80;99.90
18611;DHT22;9435;52.122;5.502;2022-10-16T10:52:41;15.80;99.90
18611;DHT22;9435;52.122;5.502;2022-10-16T10:55:16;16.00;99.90
18611;DHT22;9435;52.122;5.502;2022-10-16T10:58:05;16.00;99.90
18611;DHT22;9435;52.122;5.502;2022-10-16T11:00:43;16.00;99.90
18611;DHT22;9435;52.122;5.502;2022-10-16T11:03:24;16.10;99.90
18611;DHT22;9435;52.122;5.502;2022-10-16T11:05:56;16.20;99.90
18611;DHT22;9435;52.122;5.502;2022-10-16T11:08:31;16.30;99.90
18611;DHT22;9435;52.122;5.502;2022-10-16T11:11:02;16.30;99.90
18611;DHT22;9435;52.122;5.502;2022-10-16T11:13:33;16.30;99.90
18611;DHT22;9435;52.122;5.502;2022-10-16T11:16:06;16.40;99.90
18611;DHT22;9435;52.122;5.502;2022-10-16T11:18:45;16.60;99.90
18611;DHT22;9435;52.122;5.502;2022-10-16T11:21:16;16.70;99.90
18611;DHT22;9435;52.122;5.502;2022-10-16T11:23:50;16.60;99.90
18611;DHT22;9435;52.122;5.502;2022-10-16T11:26:20;16.60;99.90
18611;DHT22;9435;52.122;5.502;2022-10-16T11:28:49;16.60;99.90
18611;DHT22;9435;52.122;5.502;2022-10-16T11:31:22;16.60;99.90
18611;DHT22;9435;52.122;5.502;2022-10-16T11:33:57;16.60;99.90
18611;DHT22;9435;52.122;5.502;2022-10-16T11:36:33;16.50;99.90
18611;DHT22;9435;52.122;5.502;2022-10-16T11:39:07;16.30;99.90
18611;DHT22;9435;52.122;5.502;2022-10-16T11:41:39;16.30;99.90
18611;DHT22;9435;52.122;5.502;2022-10-16T11:44:24;16.40;99.90
18611;DHT22;9435;52.122;5.502;2022-10-16T11:47:03;16.50;99.90
18611;DHT22;9435;52.122;5.502;2022-10-16T11:49:33;16.50;99.90
18611;DHT22;9435;52.122;5.502;2022-10-16T11:52:06;16.50;99.90
18611;DHT22;9435;52.122;5.502;2022-10-16T11:54:43;16.50;99.90
18611;DHT22;9435;52.122;5.502;2022-10-16T11:57:22;16.50;99.90
18611;DHT22;9435;52.122;5.502;2022-10-16T11:59:53;16.50;99.90
18611;DHT22;9435;52.122;5.502;2022-10-16T12:02:49;16.40;99.90
18611;DHT22;9435;52.122;5.502;2022-10-16T12:05:24;16.30;99.90
18611;DHT22;9435;52.122;5.502;2022-10-16T12:07:59;16.30;99.90
18611;DHT22;9435;52.122;5.502;2022-10-16T12:10:30;16.20;99.90
18611;DHT22;9435;52.122;5.502;2022-10-16T12:13:02;16.20;99.90
18611;DHT22;9435;52.122;5.502;2022-10-16T12:15:31;16.20;99.90
18611;DHT22;9435;52.122;5.502;2022-10-16T12:17:59;16.20;99.90
18611;DHT22;9435;52.122;5.502;2022-10-16T12:20:29;16.10;99.90
18611;DHT22;9435;52.122;5.502;2022-10-16T12:23:00;16.10;99.90
18611;DHT22;9435;52.122;5.502;2022-10-16T12:25:32;16.20;99.90
18611;DHT22;9435;52.122;5.502;2022-10-16T12:28:05;16.20;99.90
18611;DHT22;9435;52.122;5.502;2022-10-16T12:30:35;16.20;99.90
18611;DHT22;9435;52.122;5.502;2022-10-16T12:33:04;16.20;99.90
18611;DHT22;9435;52.122;5.502;2022-10-16T12:35:34;16.30;99.90
18611;DHT22;9435;52.122;5.502;2022-10-16T12:38:15;16.30;99.90
18611;DHT22;9435;52.122;5.502;2022-10-16T12:40:45;16.30;99.90
18611;DHT22;9435;52.122;5.502;2022-10-16T12:43:25;16.40;99.90
18611;DHT22;9435;52.122;5.502;2022-10-16T12:46:00;16.40;99.90
18611;DHT22;9435;52.122;5.502;2022-10-16T12:48:28;16.40;99.90
18611;DHT22;9435;52.122;5.502;2022-10-16T12:50:55;16.40;99.90
18611;DHT22;9435;52.122;5.502;2022-10-16T12:53:25;16.40;99.90
18611;DHT22;9435;52.122;5.502;2022-10-16T12:56:03;16.40;99.90
18611;DHT22;9435;52.122;5.502;2022-10-16T12:58:52;16.40;99.90
18611;DHT22;9435;52.122;5.502;2022-10-16T13:01:32;16.40;99.90
18611;DHT22;9435;52.122;5.502;2022-10-16T13:04:22;16.40;99.90
18611;DHT22;9435;52.122;5.502;2022-10-16T13:07:00;16.40;99.90
18611;DHT22;9435;52.122;5.502;2022-10-16T13:09:51;16.40;99.90
18611;DHT22;9435;52.122;5.502;2022-10-16T13:12:38;16.40;99.90
18611;DHT22;9435;52.122;5.502;2022-10-16T13:15:25;16.50;99.90
18611;DHT22;9435;52.122;5.502;2022-10-16T13:18:00;16.50;99.90
18611;DHT22;9435;52.122;5.502;2022-10-16T13:20:33;16.50;99.90
18611;DHT22;9435;52.122;5.502;2022-10-16T13:23:10;16.60;99.90
18611;DHT22;9435;52.122;5.502;2022-10-16T13:25:50;16.60;99.90
18611;DHT22;9435;52.122;5.502;2022-10-16T13:28:27;16.60;99.90
18611;DHT22;9435;52.122;5.502;2022-10-16T13:30:57;16.60;99.90
18611;DHT22;9435;52.122;5.502;2022-10-16T13:33:32;16.60;99.90
18611;DHT22;9435;52.122;5.502;2022-10-16T13:36:00;16.60;99.90
18611;DHT22;9435;52.122;5.502;2022-10-16T13:38:28;16.70;99.90
18611;DHT22;9435;52.122;5.502;2022-10-16T13:40:57;16.60;99.90
18611;DHT22;9435;52.122;5.502;2022-10-16T13:43:29;16.60;99.90
18611;DHT22;9435;52.122;5.502;2022-10-16T13:46:00;16.60;99.90
18611;DHT22;9435;52.122;5.502;2022-10-16T13:48:28;16.60;99.90
18611;DHT22;9435;52.122;5.502;2022-10-16T13:50:59;16.50;99.90
18611;DHT22;9435;52.122;5.502;2022-10-16T13:53:26;16.50;99.90
18611;DHT22;9435;52.122;5.502;2022-10-16T13:55:53;16.50;99.90
18611;DHT22;9435;52.122;5.502;2022-10-16T13:58:20;16.50;99.90
18611;DHT22;9435;52.122;5.502;2022-10-16T14:00:56;16.40;99.90
18611;DHT22;9435;52.122;5.502;2022-10-16T14:03:25;16.40;99.90
18611;DHT22;9435;52.122;5.502;2022-10-16T14:05:55;16.40;99.90
18611;DHT22;9435;52.122;5.502;2022-10-16T14:08:25;16.40;99.90
18611;DHT22;9435;52.122;5.502;2022-10-16T14:10:55;16.40;99.90
18611;DHT22;9435;52.122;5.502;2022-10-16T14:13:31;16.30;99.90
18611;DHT22;9435;52.122;5.502;2022-10-16T14:16:04;16.40;99.90
18611;DHT22;9435;52.122;5.502;2022-10-16T14:18:33;16.30;99.90
18611;DHT22;9435;52.122;5.502;2022-10-16T14:21:05;16.40;99.90
18611;DHT22;9435;52.122;5.502;2022-10-16T14:23:34;16.30;99.90
18611;DHT22;9435;52.122;5.502;2022-10-16T14:26:22;16.30;99.90
18611;DHT22;9435;52.122;5.502;2022-10-16T14:29:03;16.30;99.90
18611;DHT22;9435;52.122;5.502;2022-10-16T14:31:33;16.30;99.90
18611;DHT22;9435;52.122;5.502;2022-10-16T14:34:02;16.30;99.90
18611;DHT22;9435;52.122;5.502;2022-10-16T14:36:29;16.30;99.90
18611;DHT22;9435;52.122;5.502;2022-10-16T14:39:02;16.30;99.90
18611;DHT22;9435;52.122;5.502;2022-10-16T14:41:31;16.30;99.90
18611;DHT22;9435;52.122;5.502;2022-10-16T14:44:02;16.40;99.90
18611;DHT22;9435;52.122;5.502;2022-10-16T14:46:34;16.30;99.90
18611;DHT22;9435;52.122;5.502;2022-10-16T14:49:04;16.30;99.90
18611;DHT22;9435;52.122;5.502;2022-10-16T14:51:40;16.30;99.90
18611;DHT22;9435;52.122;5.502;2022-10-16T14:54:08;16.30;99.90
18611;DHT22;9435;52.122;5.502;2022-10-16T14:56:43;16.30;99.90
18611;DHT22;9435;52.122;5.502;2022-10-16T14:59:17;16.20;99.90
18611;DHT22;9435;52.122;5.502;2022-10-16T15:01:46;16.20;99.90
18611;DHT22;9435;52.122;5.502;2022-10-16T15:04:14;16.20;99.90
18611;DHT22;9435;52.122;5.502;2022-10-16T15:06:42;16.10;99.90
18611;DHT22;9435;52.122;5.502;2022-10-16T15:09:09;16.10;99.90
18611;DHT22;9435;52.122;5.502;2022-10-16T15:11:36;16.10;99.90
18611;DHT22;9435;52.122;5.502;2022-10-16T15:14:03;16.10;99.90
18611;DHT22;9435;52.122;5.502;2022-10-16T15:16:31;16.10;99.90
18611;DHT22;9435;52.122;5.502;2022-10-16T15:18:59;16.10;99.90
18611;DHT22;9435;52.122;5.502;2022-10-16T15:21:28;16.00;99.90
18611;DHT22;9435;52.122;5.502;2022-10-16T15:23:55;16.00;99.90
18611;DHT22;9435;52.122;5.502;2022-10-16T15:26:23;16.00;99.90
18611;DHT22;9435;52.122;5.502;2022-10-16T15:28:50;15.90;99.90
18611;DHT22;9435;52.122;5.502;2022-10-16T15:31:17;15.90;99.90
18611;DHT22;9435;52.122;5.502;2022-10-16T15:33:44;15.90;99.90
18611;DHT22;9435;52.122;5.502;2022-10-16T15:36:25;15.90;99.90
18611;DHT22;9435;52.122;5.502;2022-10-16T15:38:52;15.80;99.90
18611;DHT22;9435;52.122;5.502;2022-10-16T15:41:19;15.70;99.90
18611;DHT22;9435;52.122;5.502;2022-10-16T15:43:48;15.60;99.90
18611;DHT22;9435;52.122;5.502;2022-10-16T15:46:18;15.60;99.90
18611;DHT22;9435;52.122;5.502;2022-10-16T15:48:46;15.60;99.90
18611;DHT22;9435;52.122;5.502;2022-10-16T15:51:13;15.60;99.90
18611;DHT22;9435;52.122;5.502;2022-10-16T15:53:41;15.60;99.90
18611;DHT22;9435;52.122;5.502;2022-10-16T15:56:10;15.50;99.90
18611;DHT22;9435;52.122;5.502;2022-10-16T15:58:37;15.50;99.90
18611;DHT22;9435;52.122;5.502;2022-10-16T16:01:05;15.50;99.90
18611;DHT22;9435;52.122;5.502;2022-10-16T16:03:33;15.50;99.90
18611;DHT22;9435;52.122;5.502;2022-10-16T16:06:04;15.40;99.90
18611;DHT22;9435;52.122;5.502;2022-10-16T16:08:32;15.40;99.90
18611;DHT22;9435;52.122;5.502;2022-10-16T16:11:02;15.40;99.90
18611;DHT22;9435;52.122;5.502;2022-10-16T16:13:30;15.40;99.90